sensor_id;sensor_type;location;lat;lon;timestamp;pressure;altitude;pressure_sealevel;temperature;humidity
59315;BME280;46521;50.160;20.802;2023-03-14T00:16:27;98347.44;;;6.93;60.97
59315;BME280;46521;50.160;20.802;2023-03-14T00:26:28;98329.11;;;6.84;61.64
59315;BME280;46521;50.160;20.802;2023-03-14T00:36:30;98328.20;;;6.77;61.70
59315;BME280;46521;50.160;20.802;2023-03-14T00:46:31;98329.70;;;6.72;61.15
59315;BME280;46521;50.160;20.802;2023-03-14T00:56:33;98309.39;;;6.65;61.57
59315;BME280;46521;50.160;20.802;2023-03-14T01:06:34;98294.05;;;6.54;61.39
59315;BME280;46521;50.160;20.802;2023-03-14T01:16:36;98261.76;;;6.45;61.25
59315;BME280;46521;50.160;20.802;2023-03-14T01:26:37;98231.30;;;6.36;62.19
59315;BME280;46521;50.160;20.802;2023-03-14T01:36:39;98204.58;;;6.33;62.17
59315;BME280;46521;50.160;20.802;2023-03-14T01:46:42;98166.48;;;6.37;62.16
59315;BME280;46521;50.160;20.802;2023-03-14T01:56:48;98153.19;;;6.53;62.25
59315;BME280;46521;50.160;20.802;2023-03-14T02:07:20;98152.56;;;6.51;62.13
59315;BME280;46521;50.160;20.802;2023-03-14T02:17:24;98143.40;;;6.47;61.70
59315;BME280;46521;50.160;20.802;2023-03-14T02:27:26;98131.10;;;6.47;62.53
59315;BME280;46521;50.160;20.802;2023-03-14T02:37:49;98116.80;;;6.65;62.35
59315;BME280;46521;50.160;20.802;2023-03-14T02:47:59;98079.20;;;6.79;61.36
59315;BME280;46521;50.160;20.802;2023-03-14T02:58:03;98060.52;;;6.89;61.33
59315;BME280;46521;50.160;20.802;2023-03-14T03:08:05;98044.75;;;6.89;61.54
59315;BME280;46521;50.160;20.802;2023-03-14T03:18:07;98042.77;;;6.91;61.04
59315;BME280;46521;50.160;20.802;2023-03-14T03:28:09;98046.94;;;6.85;61.24
59315;BME280;46521;50.160;20.802;2023-03-14T03:38:11;97999.02;;;6.83;61.16
59315;BME280;46521;50.160;20.802;2023-03-14T03:48:12;97976.79;;;6.86;60.98
59315;BME280;46521;50.160;20.802;2023-03-14T03:58:14;97963.03;;;6.84;61.21
59315;BME280;46521;50.160;20.802;2023-03-14T04:08:15;97946.73;;;6.74;60.61
59315;BME280;46521;50.160;20.802;2023-03-14T04:18:17;97958.27;;;6.73;60.73
59315;BME280;46521;50.160;20.802;2023-03-14T04:28:19;97955.36;;;6.67;60.80
59315;BME280;46521;50.160;20.802;2023-03-14T04:38:21;97957.11;;;6.60;59.59
59315;BME280;46521;50.160;20.802;2023-03-14T04:48:23;97990.64;;;6.58;60.73
59315;BME280;46521;50.160;20.802;2023-03-14T04:58:24;97983.13;;;6.55;60.60
59315;BME280;46521;50.160;20.802;2023-03-14T05:08:26;97978.48;;;6.42;60.25
59315;BME280;46521;50.160;20.802;2023-03-14T05:18:27;98001.40;;;6.48;60.11
59315;BME280;46521;50.160;20.802;2023-03-14T05:28:29;97995.49;;;6.61;60.96
59315;BME280;46521;50.160;20.802;2023-03-14T05:38:30;98002.09;;;6.72;60.36
59315;BME280;46521;50.160;20.802;2023-03-14T05:48:32;97987.46;;;6.99;60.07
59315;BME280;46521;50.160;20.802;2023-03-14T05:58:33;97983.59;;;7.38;60.54
59315;BME280;46521;50.160;20.802;2023-03-14T06:08:35;97989.52;;;7.97;60.04
59315;BME280;46521;50.160;20.802;2023-03-14T06:18:36;97964.40;;;8.29;59.95
59315;BME280;46521;50.160;20.802;2023-03-14T06:28:38;97949.43;;;8.85;59.79
59315;BME280;46521;50.160;20.802;2023-03-14T06:38:40;97950.92;;;9.14;59.51
59315;BME280;46521;50.160;20.802;2023-03-14T06:48:41;97939.98;;;9.44;58.94
59315;BME280;46521;50.160;20.802;2023-03-14T06:58:43;97934.09;;;9.76;58.39
59315;BME280;46521;50.160;20.802;2023-03-14T07:08:45;97907.81;;;10.07;58.31
59315;BME280;46521;50.160;20.802;2023-03-14T07:18:47;97882.05;;;9.96;58.06
59315;BME280;46521;50.160;20.802;2023-03-14T07:28:50;97879.44;;;9.89;57.84
59315;BME280;46521;50.160;20.802;2023-03-14T07:38:51;97877.78;;;10.02;58.04
59315;BME280;46521;50.160;20.802;2023-03-14T07:48:54;97868.61;;;10.56;57.71
59315;BME280;46521;50.160;20.802;2023-03-14T07:58:56;97861.30;;;10.90;57.87
59315;BME280;46521;50.160;20.802;2023-03-14T08:08:58;97863.86;;;11.91;57.67
59315;BME280;46521;50.160;20.802;2023-03-14T08:18:59;97854.23;;;13.06;55.95
59315;BME280;46521;50.160;20.802;2023-03-14T08:29:01;97852.21;;;13.56;53.74
59315;BME280;46521;50.160;20.802;2023-03-14T08:39:04;97858.93;;;13.70;53.94
59315;BME280;46521;50.160;20.802;2023-03-14T08:49:08;97865.27;;;13.57;53.75
59315;BME280;46521;50.160;20.802;2023-03-14T08:59:09;97869.10;;;13.49;53.55
59315;BME280;46521;50.160;20.802;2023-03-14T09:09:12;97855.00;;;13.37;53.39
59315;BME280;46521;50.160;20.802;2023-03-14T09:19:14;97847.05;;;14.13;53.09
59315;BME280;46521;50.160;20.802;2023-03-14T09:29:16;97862.91;;;14.77;51.70
59315;BME280;46521;50.160;20.802;2023-03-14T09:39:17;97871.97;;;14.93;51.56
59315;BME280;46521;50.160;20.802;2023-03-14T09:49:37;97867.98;;;15.08;50.90
59315;BME280;46521;50.160;20.802;2023-03-14T09:59:42;97887.39;;;15.59;50.87
59315;BME280;46521;50.160;20.802;2023-03-14T10:09:47;97870.50;;;15.88;50.14
59315;BME280;46521;50.160;20.802;2023-03-14T10:19:56;97884.36;;;15.34;50.20
59315;BME280;46521;50.160;20.802;2023-03-14T10:30:01;97890.14;;;15.81;50.13
59315;BME280;46521;50.160;20.802;2023-03-14T10:40:03;97903.40;;;16.15;49.49
59315;BME280;46521;50.160;20.802;2023-03-14T10:50:24;97905.21;;;16.10;49.49
59315;BME280;46521;50.160;20.802;2023-03-14T11:00:26;97895.38;;;15.93;50.03
59315;BME280;46521;50.160;20.802;2023-03-14T11:10:35;97880.88;;;16.28;48.69
59315;BME280;46521;50.160;20.802;2023-03-14T11:20:43;97880.63;;;16.08;48.70
59315;BME280;46521;50.160;20.802;2023-03-14T11:31:33;97885.95;;;15.52;48.24
59315;BME280;46521;50.160;20.802;2023-03-14T11:41:36;97878.46;;;15.14;48.94
59315;BME280;46521;50.160;20.802;2023-03-14T11:51:41;97881.18;;;15.03;48.97
59315;BME280;46521;50.160;20.802;2023-03-14T12:01:52;97865.05;;;14.92;48.92
59315;BME280;46521;50.160;20.802;2023-03-14T12:11:59;97859.09;;;15.02;49.44
59315;BME280;46521;50.160;20.802;2023-03-14T12:22:24;97842.61;;;14.88;49.33
59315;BME280;46521;50.160;20.802;2023-03-14T12:32:27;97854.38;;;14.75;49.38
59315;BME280;46521;50.160;20.802;2023-03-14T13:02:43;97849.78;;;14.59;49.84
59315;BME280;46521;50.160;20.802;2023-03-14T13:13:19;97846.23;;;14.53;49.85
59315;BME280;46521;50.160;20.802;2023-03-14T13:23:26;97844.52;;;14.47;50.46
59315;BME280;46521;50.160;20.802;2023-03-14T13:33:28;97856.49;;;14.33;50.66
59315;BME280;46521;50.160;20.802;2023-03-14T13:43:32;97857.83;;;14.06;51.03
59315;BME280;46521;50.160;20.802;2023-03-14T13:53:54;97865.05;;;13.82;51.65
59315;BME280;46521;50.160;20.802;2023-03-14T14:03:57;97875.33;;;13.67;51.65
59315;BME280;46521;50.160;20.802;2023-03-14T14:13:59;97869.65;;;13.40;52.04
59315;BME280;46521;50.160;20.802;2023-03-14T14:24:01;97878.73;;;13.20;52.33
59315;BME280;46521;50.160;20.802;2023-03-14T14:34:03;97869.70;;;13.09;52.94
59315;BME280;46521;50.160;20.802;2023-03-14T14:44:05;97861.70;;;12.97;53.02
59315;BME280;46521;50.160;20.802;2023-03-14T14:54:18;97883.49;;;12.88;53.00
59315;BME280;46521;50.160;20.802;2023-03-14T15:04:20;97882.64;;;12.75;53.27
59315;BME280;46521;50.160;20.802;2023-03-14T15:14:21;97882.45;;;12.58;53.85
59315;BME280;46521;50.160;20.802;2023-03-14T15:24:23;97897.81;;;12.38;53.87
59315;BME280;46521;50.160;20.802;2023-03-14T15:34:24;97909.47;;;12.18;54.68
59315;BME280;46521;50.160;20.802;2023-03-14T15:44:26;97904.09;;;12.06;55.84
59315;BME280;46521;50.160;20.802;2023-03-14T15:54:28;97915.64;;;11.94;56.09
59315;BME280;46521;50.160;20.802;2023-03-14T16:04:29;97951.05;;;11.74;56.41
59315;BME280;46521;50.160;20.802;2023-03-14T16:14:30;97951.64;;;11.51;56.74
59315;BME280;46521;50.160;20.802;2023-03-14T16:24:32;97979.48;;;11.28;58.55
59315;BME280;46521;50.160;20.802;2023-03-14T16:34:36;97987.16;;;11.05;59.21
59315;BME280;46521;50.160;20.802;2023-03-14T16:44:38;97991.31;;;10.87;59.89
59315;BME280;46521;50.160;20.802;2023-03-14T16:54:39;97988.95;;;10.66;60.78
59315;BME280;46521;50.160;20.802;2023-03-14T17:04:41;97988.02;;;10.53;62.01
59315;BME280;46521;50.160;20.802;2023-03-14T17:14:42;97994.55;;;10.44;62.83
59315;BME280;46521;50.160;20.802;2023-03-14T17:24:44;98000.66;;;10.38;63.71
59315;BME280;46521;50.160;20.802;2023-03-14T17:34:45;97999.44;;;10.34;64.10
59315;BME280;46521;50.160;20.802;2023-03-14T17:44:47;97985.38;;;10.26;64.44
59315;BME280;46521;50.160;20.802;2023-03-14T17:54:50;97984.22;;;10.16;64.93
59315;BME280;46521;50.160;20.802;2023-03-14T18:04:52;97982.20;;;9.98;65.54
59315;BME280;46521;50.160;20.802;2023-03-14T18:14:53;97975.30;;;9.90;66.31
59315;BME280;46521;50.160;20.802;2023-03-14T18:24:55;97959.08;;;9.80;66.61
59315;BME280;46521;50.160;20.802;2023-03-14T18:34:56;97968.81;;;9.86;66.70
59315;BME280;46521;50.160;20.802;2023-03-14T18:44:58;97964.77;;;9.77;67.63
59315;BME280;46521;50.160;20.802;2023-03-14T18:54:59;97953.79;;;9.66;68.01
59315;BME280;46521;50.160;20.802;2023-03-14T19:05:01;97959.27;;;9.65;68.48
59315;BME280;46521;50.160;20.802;2023-03-14T19:15:02;97948.52;;;9.60;68.46
59315;BME280;46521;50.160;20.802;2023-03-14T19:25:04;97959.48;;;9.56;69.18
59315;BME280;46521;50.160;20.802;2023-03-14T19:35:08;97991.36;;;9.48;69.38
59315;BME280;46521;50.160;20.802;2023-03-14T19:45:10;98026.63;;;9.34;70.03
59315;BME280;46521;50.160;20.802;2023-03-14T19:55:12;98045.48;;;9.24;69.78
59315;BME280;46521;50.160;20.802;2023-03-14T20:05:14;98039.39;;;9.17;70.48
59315;BME280;46521;50.160;20.802;2023-03-14T20:15:17;98051.16;;;9.21;70.48
59315;BME280;46521;50.160;20.802;2023-03-14T20:25:20;98056.63;;;9.19;70.55
59315;BME280;46521;50.160;20.802;2023-03-14T20:35:22;98049.30;;;9.08;70.14
59315;BME280;46521;50.160;20.802;2023-03-14T20:45:24;98065.64;;;8.90;70.87
59315;BME280;46521;50.160;20.802;2023-03-14T20:55:25;98060.73;;;8.80;70.83
59315;BME280;46521;50.160;20.802;2023-03-14T21:05:27;98060.72;;;8.74;70.91
59315;BME280;46521;50.160;20.802;2023-03-14T21:15:28;98064.32;;;8.66;70.49
59315;BME280;46521;50.160;20.802;2023-03-14T21:25:31;98079.14;;;8.67;71.23
59315;BME280;46521;50.160;20.802;2023-03-14T21:35:32;98082.94;;;8.58;71.12
59315;BME280;46521;50.160;20.802;2023-03-14T21:45:34;98058.94;;;8.46;70.83
59315;BME280;46521;50.160;20.802;2023-03-14T21:55:40;98070.69;;;8.43;71.24
59315;BME280;46521;50.160;20.802;2023-03-14T22:05:46;98077.11;;;8.41;71.44
59315;BME280;46521;50.160;20.802;2023-03-14T22:15:48;98087.50;;;8.21;71.84
59315;BME280;46521;50.160;20.802;2023-03-14T22:25:50;98102.95;;;8.02;72.17
59315;BME280;46521;50.160;20.802;2023-03-14T22:35:52;98103.23;;;7.86;71.58
59315;BME280;46521;50.160;20.802;2023-03-14T22:45:58;98086.82;;;7.84;71.51
59315;BME280;46521;50.160;20.802;2023-03-14T22:56:02;98094.95;;;7.89;71.42
59315;BME280;46521;50.160;20.802;2023-03-14T23:06:04;98091.25;;;7.83;72.36
59315;BME280;46521;50.160;20.802;2023-03-14T23:16:07;98118.13;;;7.79;71.74
59315;BME280;46521;50.160;20.802;2023-03-14T23:26:09;98120.52;;;7.73;71.89
59315;BME280;46521;50.160;20.802;2023-03-14T23:36:14;98140.05;;;7.64;72.09
59315;BME280;46521;50.160;20.802;2023-03-14T23:46:16;98162.38;;;7.68;71.70
